createdAt,value
2023-04-02T00:00:23.799Z,6.93
2023-04-02T00:01:34.555Z,7.60
2023-04-02T00:02:56.875Z,6.95
2023-04-02T00:04:03.497Z,7.65
2023-04-02T00:05:31.936Z,8.73
2023-04-02T00:06:40.597Z,9.57
2023-04-02T00:07:44.861Z,6.68
2023-04-02T00:08:49.063Z,8.10
2023-04-02T00:09:51.835Z,8.65
2023-04-02T00:10:56.282Z,6.65
2023-04-02T00:12:00.510Z,7.50
2023-04-02T00:13:04.948Z,6.45
2023-04-02T00:14:15.810Z,6.95
2023-04-02T00:15:17.937Z,8.38
2023-04-02T00:16:23.137Z,7.45
2023-04-02T00:17:25.792Z,5.95
2023-04-02T00:18:28.555Z,6.97
2023-04-02T00:19:49.176Z,6.35
2023-04-02T00:21:00.163Z,6.40
2023-04-02T00:22:03.303Z,8.02
2023-04-02T00:23:05.698Z,6.47
2023-04-02T00:24:14.014Z,6.28
2023-04-02T00:25:16.211Z,7.28
2023-04-02T00:26:23.202Z,7.75
2023-04-02T00:27:25.850Z,7.43
2023-04-02T00:28:28.027Z,10.38
2023-04-02T00:29:30.454Z,6.70
2023-04-02T00:30:32.665Z,6.00
2023-04-02T00:31:35.223Z,6.22
2023-04-02T00:32:37.538Z,6.28
2023-04-02T00:33:39.855Z,7.10
2023-04-02T00:34:42.103Z,5.05
2023-04-02T00:35:44.297Z,7.72
2023-04-02T00:36:46.909Z,6.22
2023-04-02T00:37:49.972Z,6.47
2023-04-02T00:38:53.432Z,6.30
2023-04-02T00:39:58.897Z,6.15
2023-04-02T00:41:06.390Z,8.48
2023-04-02T00:42:11.643Z,6.38
2023-04-02T00:43:16.851Z,5.90
2023-04-02T00:44:22.054Z,5.60
2023-04-02T00:45:25.748Z,7.25
2023-04-02T00:46:34.810Z,5.53
2023-04-02T00:47:38.044Z,5.10
2023-04-02T00:48:44.828Z,7.07
2023-04-02T00:49:49.287Z,6.63
2023-04-02T00:50:53.326Z,6.78
2023-04-02T00:52:13.573Z,7.63
2023-04-02T00:53:21.247Z,6.35
2023-04-02T00:54:25.829Z,7.30
2023-04-02T00:55:35.102Z,6.00
2023-04-02T00:56:39.994Z,6.57
2023-04-02T00:57:43.151Z,8.30
2023-04-02T00:58:46.270Z,6.20
2023-04-02T00:59:57.804Z,6.45
2023-04-02T01:01:00.511Z,8.68
2023-04-02T01:02:18.754Z,6.70
2023-04-02T01:03:23.073Z,5.07
2023-04-02T01:05:27.542Z,4.68
2023-04-02T01:06:34.476Z,6.97
2023-04-02T01:07:57.340Z,6.03
2023-04-02T01:08:59.486Z,5.15
2023-04-02T01:10:20.576Z,5.32
2023-04-02T01:11:41.880Z,7.20
2023-04-02T01:13:01.825Z,6.20
2023-04-02T01:14:13.175Z,8.07
2023-04-02T01:15:38.640Z,4.47
2023-04-02T01:16:42.429Z,7.00
2023-04-02T01:17:46.950Z,7.07
2023-04-02T01:19:04.735Z,7.40
2023-04-02T01:20:10.130Z,5.65
2023-04-02T01:21:12.582Z,5.28
2023-04-02T01:22:14.755Z,5.70
2023-04-02T01:23:17.222Z,5.40
2023-04-02T01:24:20.903Z,7.15
2023-04-02T01:25:26.943Z,5.65
2023-04-02T01:26:48.324Z,6.43
2023-04-02T01:28:00.580Z,4.53
2023-04-02T01:29:03.628Z,4.88
2023-04-02T01:30:12.148Z,5.35
2023-04-02T01:31:15.411Z,5.05
2023-04-02T01:32:19.923Z,5.50
2023-04-02T01:33:23.500Z,5.25
2023-04-02T01:34:27.340Z,6.40
2023-04-02T01:36:52.229Z,4.85
2023-04-02T01:38:03.413Z,6.38
2023-04-02T01:39:17.941Z,5.32
2023-04-02T01:40:28.831Z,4.18
2023-04-02T01:41:51.300Z,5.15
2023-04-02T01:43:12.365Z,6.28
2023-04-02T01:44:17.946Z,6.13
2023-04-02T01:45:22.642Z,5.57
2023-04-02T01:46:26.996Z,4.95
2023-04-02T01:47:29.917Z,5.15
2023-04-02T01:48:32.336Z,4.88
2023-04-02T01:49:34.536Z,6.10
2023-04-02T01:50:38.760Z,6.22
2023-04-02T01:51:45.502Z,6.63
2023-04-02T01:52:50.904Z,7.13
2023-04-02T01:54:57.817Z,4.72
2023-04-02T01:56:01.260Z,4.00
2023-04-02T01:57:04.304Z,4.25
2023-04-02T01:58:07.676Z,3.83
2023-04-02T01:59:11.389Z,3.97
2023-04-02T02:00:17.029Z,4.05
2023-04-02T02:01:25.872Z,4.68
2023-04-02T02:02:28.697Z,5.20
2023-04-02T02:03:31.352Z,3.90
2023-04-02T02:04:34.151Z,5.03
2023-04-02T02:05:36.808Z,4.32
2023-04-02T02:06:40.049Z,4.82
2023-04-02T02:07:42.550Z,4.00
2023-04-02T02:08:51.249Z,5.03
2023-04-02T02:09:54.207Z,4.13
2023-04-02T02:10:57.214Z,4.50
2023-04-02T02:12:01.890Z,4.30
2023-04-02T02:13:04.312Z,5.53
2023-04-02T02:14:13.040Z,7.18
2023-04-02T02:15:17.286Z,7.93
2023-04-02T02:16:19.801Z,3.85
2023-04-02T02:17:26.788Z,4.57
2023-04-02T02:18:29.346Z,5.00
2023-04-02T02:19:31.483Z,4.55
2023-04-02T02:20:34.689Z,4.78
2023-04-02T02:21:37.054Z,3.83
2023-04-02T02:22:40.811Z,3.85
2023-04-02T02:23:43.091Z,4.72
2023-04-02T02:24:45.504Z,4.18
2023-04-02T02:25:48.182Z,4.07
2023-04-02T02:26:54.556Z,4.43
2023-04-02T02:28:11.344Z,6.72
2023-04-02T02:29:17.124Z,4.03
2023-04-02T02:30:29.161Z,5.63
2023-04-02T02:31:33.718Z,3.97
2023-04-02T02:32:40.036Z,4.47
2023-04-02T02:33:44.679Z,6.10
2023-04-02T02:34:49.570Z,3.30
2023-04-02T02:35:57.652Z,3.58
2023-04-02T02:37:13.505Z,3.85
2023-04-02T02:38:34.247Z,4.32
2023-04-02T02:39:44.776Z,4.22
2023-04-02T02:40:49.675Z,4.45
2023-04-02T02:41:54.895Z,4.18
2023-04-02T02:43:00.114Z,3.35
2023-04-02T02:44:02.411Z,3.60
2023-04-02T02:45:07.192Z,3.55
2023-04-02T02:46:13.992Z,4.30
2023-04-02T02:47:25.062Z,4.88
2023-04-02T02:48:34.033Z,4.82
2023-04-02T02:49:39.689Z,4.68
2023-04-02T02:50:43.174Z,5.57
2023-04-02T02:52:04.772Z,3.75
2023-04-02T02:53:16.854Z,3.78
2023-04-02T02:54:19.947Z,4.47
2023-04-02T02:55:24.643Z,4.57
2023-04-02T02:57:11.014Z,3.58
2023-04-02T02:58:17.896Z,4.72
2023-04-02T02:59:33.825Z,4.78
2023-04-02T03:00:37.938Z,6.30
2023-04-02T03:01:41.001Z,5.93
2023-04-02T03:02:44.531Z,5.15
2023-04-02T03:03:49.094Z,4.82
2023-04-02T03:04:53.209Z,4.57
2023-04-02T03:06:02.939Z,5.28
2023-04-02T03:07:09.296Z,4.70
2023-04-02T03:08:15.190Z,5.10
2023-04-02T03:09:23.678Z,4.68
2023-04-02T03:10:35.079Z,4.30
2023-04-02T03:11:40.930Z,3.47
2023-04-02T03:12:53.227Z,5.07
2023-04-02T03:14:00.876Z,4.05
2023-04-02T03:15:11.687Z,5.03
2023-04-02T03:16:20.855Z,4.30
2023-04-02T03:17:30.541Z,4.88
2023-04-02T03:18:54.290Z,3.67
2023-04-02T03:19:59.548Z,4.90
2023-04-02T03:21:16.252Z,3.95
2023-04-02T03:23:23.470Z,4.25
2023-04-02T03:24:28.731Z,4.20
2023-04-02T03:25:43.661Z,4.60
2023-04-02T03:26:50.102Z,4.40
2023-04-02T03:27:57.011Z,5.45
2023-04-02T03:29:14.310Z,5.40
2023-04-02T03:30:35.352Z,6.15
2023-04-02T03:31:37.612Z,6.13
2023-04-02T03:32:42.576Z,4.57
2023-04-02T03:33:53.280Z,5.90
2023-04-02T03:34:58.055Z,5.70
2023-04-02T03:36:03.689Z,5.05
2023-04-02T03:37:16.817Z,5.30
2023-04-02T03:38:25.021Z,7.70
2023-04-02T03:39:36.090Z,5.32
2023-04-02T03:40:41.947Z,4.72
2023-04-02T03:41:46.581Z,3.97
2023-04-02T03:43:20.244Z,6.30
2023-04-02T03:44:22.741Z,6.47
2023-04-02T03:45:27.309Z,5.63
2023-04-02T03:46:41.055Z,5.45
2023-04-02T03:47:44.260Z,7.20
2023-04-02T03:48:49.401Z,5.75
2023-04-02T03:49:52.512Z,7.60
2023-04-02T03:51:05.554Z,8.38
2023-04-02T03:52:16.728Z,5.47
2023-04-02T03:53:19.073Z,6.45
2023-04-02T03:54:22.272Z,5.95
2023-04-02T03:55:28.939Z,4.57
2023-04-02T03:56:39.997Z,5.82
2023-04-02T03:57:51.783Z,6.35
2023-04-02T03:59:00.469Z,5.30
2023-04-02T04:00:05.179Z,6.25
2023-04-02T04:01:24.496Z,9.98
2023-04-02T04:02:27.820Z,7.60
2023-04-02T04:03:33.216Z,8.05
2023-04-02T04:04:39.982Z,5.28
2023-04-02T04:05:48.573Z,6.35
2023-04-02T04:06:52.557Z,8.32
2023-04-02T04:07:57.370Z,9.18
2023-04-02T04:09:09.200Z,9.95
2023-04-02T04:10:18.162Z,7.55
2023-04-02T04:11:30.818Z,7.70
2023-04-02T04:12:40.042Z,6.72
2023-04-02T04:13:55.116Z,6.07
2023-04-02T04:15:02.864Z,7.78
2023-04-02T04:16:11.836Z,7.60
2023-04-02T04:17:38.839Z,7.55
2023-04-02T04:19:05.228Z,6.47
2023-04-02T04:20:12.165Z,6.50
2023-04-02T04:21:45.158Z,6.68
2023-04-02T04:23:09.065Z,9.10
2023-04-02T04:24:23.163Z,9.43
2023-04-02T04:25:34.008Z,9.60
2023-04-02T04:27:09.741Z,12.52
2023-04-02T04:28:33.736Z,8.07
2023-04-02T04:30:04.498Z,12.18
2023-04-02T04:31:09.330Z,10.38
2023-04-02T04:32:36.861Z,8.23
2023-04-02T04:33:50.739Z,10.45
2023-04-02T04:35:03.084Z,8.63
2023-04-02T04:36:06.733Z,8.45
2023-04-02T04:37:21.716Z,8.75
2023-04-02T04:38:33.847Z,8.40
2023-04-02T04:41:05.240Z,8.15
2023-04-02T04:42:13.103Z,12.13
2023-04-02T04:43:18.620Z,7.65
2023-04-02T04:44:27.921Z,6.95
2023-04-02T04:45:42.752Z,9.65
2023-04-02T04:46:50.825Z,12.32
2023-04-02T04:49:00.710Z,13.02
2023-04-02T04:50:18.276Z,10.55
2023-04-02T04:51:26.181Z,9.82
2023-04-02T04:52:33.072Z,10.23
2023-04-02T04:53:45.605Z,10.27
2023-04-02T04:54:48.369Z,8.80
2023-04-02T04:55:59.716Z,12.93
2023-04-02T04:57:29.056Z,9.02
2023-04-02T04:59:31.594Z,10.00
2023-04-02T05:00:53.269Z,10.15
2023-04-02T05:02:06.398Z,10.65
2023-04-02T05:03:24.695Z,11.63
2023-04-02T05:04:37.548Z,9.52
2023-04-02T05:05:41.857Z,12.07
2023-04-02T05:07:03.247Z,12.70
2023-04-02T05:08:15.266Z,12.82
2023-04-02T05:09:20.659Z,15.98
2023-04-02T05:10:43.824Z,16.38
2023-04-02T05:12:17.839Z,18.05
2023-04-02T05:13:34.963Z,15.52
2023-04-02T05:14:41.075Z,17.23
2023-04-02T05:15:46.366Z,17.45
2023-04-02T05:16:53.496Z,15.43
2023-04-02T05:18:15.789Z,13.75
2023-04-02T05:19:27.220Z,16.13
2023-04-02T05:20:33.790Z,15.93
2023-04-02T05:21:51.787Z,14.85
2023-04-02T05:23:10.054Z,13.32
2023-04-02T05:24:31.709Z,12.60
2023-04-02T05:25:34.961Z,11.73
2023-04-02T05:26:42.475Z,13.23
2023-04-02T05:27:49.679Z,11.52
2023-04-02T05:29:01.365Z,13.65
2023-04-02T05:30:10.278Z,11.77
2023-04-02T05:31:15.254Z,11.63
2023-04-02T05:32:23.180Z,9.85
2023-04-02T05:33:32.262Z,10.60
2023-04-02T05:34:38.870Z,11.10
2023-04-02T05:35:44.803Z,10.90
2023-04-02T05:36:51.461Z,10.63
2023-04-02T05:37:53.810Z,8.18
2023-04-02T05:38:56.906Z,9.98
2023-04-02T05:40:14.831Z,10.07
2023-04-02T05:41:28.685Z,12.98
2023-04-02T05:42:42.939Z,12.05
2023-04-02T05:43:48.185Z,9.20
2023-04-02T05:45:23.415Z,10.88
2023-04-02T05:46:28.433Z,11.20
2023-04-02T05:47:32.760Z,14.50
2023-04-02T05:48:44.286Z,13.48
2023-04-02T05:50:17.555Z,11.82
2023-04-02T05:51:26.398Z,10.57
2023-04-02T05:52:31.285Z,12.73
2023-04-02T05:53:40.809Z,11.90
2023-04-02T05:54:57.096Z,11.13
2023-04-02T05:56:22.230Z,11.60
2023-04-02T05:57:43.761Z,11.93
2023-04-02T05:58:49.608Z,8.73
2023-04-02T06:00:25.029Z,9.95
2023-04-02T06:01:38.233Z,8.25
2023-04-02T06:02:56.797Z,11.25
2023-04-02T06:05:17.151Z,8.05
2023-04-02T06:06:39.888Z,9.05
2023-04-02T06:07:45.445Z,9.63
2023-04-02T06:09:05.283Z,8.30
2023-04-02T06:10:32.965Z,9.98
2023-04-02T06:13:19.283Z,10.75
2023-04-02T06:14:26.324Z,8.80
2023-04-02T06:15:30.937Z,9.35
2023-04-02T06:18:16.300Z,9.82
2023-04-02T06:19:22.589Z,9.80
2023-04-02T06:20:26.386Z,9.07
2023-04-02T06:22:02.250Z,11.68
2023-04-02T06:23:11.877Z,9.15
2023-04-02T06:24:21.210Z,12.65
2023-04-02T06:25:23.448Z,9.52
2023-04-02T06:26:33.936Z,10.60
2023-04-02T06:27:37.876Z,10.45
2023-04-02T06:28:48.053Z,11.90
2023-04-02T06:31:22.760Z,9.73
2023-04-02T06:34:25.123Z,9.30
2023-04-02T06:35:43.263Z,11.38
2023-04-02T06:36:51.017Z,12.18
2023-04-02T06:38:03.333Z,9.77
2023-04-02T06:39:17.220Z,11.07
2023-04-02T06:40:42.185Z,11.07
2023-04-02T06:42:09.647Z,12.35
2023-04-02T06:43:46.702Z,14.25
2023-04-02T06:45:19.156Z,13.63
2023-04-02T06:46:37.029Z,11.30
2023-04-02T06:47:44.530Z,10.65
2023-04-02T06:48:57.234Z,9.15
2023-04-02T06:50:05.915Z,13.55
2023-04-02T06:51:10.921Z,11.55
2023-04-02T06:52:26.062Z,12.88
2023-04-02T06:53:39.085Z,10.63
2023-04-02T06:54:49.921Z,11.07
2023-04-02T06:56:11.652Z,12.18
2023-04-02T06:57:39.312Z,11.80
2023-04-02T06:58:41.894Z,10.88
2023-04-02T06:59:44.725Z,11.18
2023-04-02T07:01:00.274Z,10.57
2023-04-02T07:04:06.573Z,10.98
2023-04-02T07:06:49.606Z,10.60
2023-04-02T07:08:38.691Z,12.93
2023-04-02T07:09:55.088Z,13.75
2023-04-02T07:10:58.692Z,11.95
2023-04-02T07:12:02.139Z,11.32
2023-04-02T07:13:06.550Z,11.85
2023-04-02T07:15:53.657Z,10.80
2023-04-02T07:18:09.823Z,10.57
2023-04-02T07:19:20.277Z,10.80
2023-04-02T07:20:49.101Z,12.05
2023-04-02T07:21:52.542Z,15.18
2023-04-02T07:23:21.670Z,11.95
2023-04-02T07:24:32.849Z,13.27
2023-04-02T07:25:44.263Z,14.25
2023-04-02T07:27:02.156Z,11.88
2023-04-02T07:28:05.057Z,13.80
2023-04-02T07:29:14.640Z,15.23
2023-04-02T07:30:27.362Z,13.80
2023-04-02T07:31:37.372Z,15.05
2023-04-02T07:32:50.239Z,14.10
2023-04-02T07:34:11.421Z,13.57
2023-04-02T07:35:14.241Z,13.15
2023-04-02T07:36:30.046Z,13.60
2023-04-02T07:37:38.401Z,13.25
2023-04-02T07:38:42.930Z,13.52
2023-04-02T07:39:45.411Z,13.68
2023-04-02T07:40:49.872Z,10.98
2023-04-02T07:41:58.356Z,11.55
2023-04-02T07:43:01.047Z,11.82
2023-04-02T07:44:04.276Z,10.98
2023-04-02T07:45:07.088Z,11.45
2023-04-02T07:46:22.977Z,10.48
2023-04-02T07:47:25.495Z,12.48
2023-04-02T07:48:41.599Z,13.90
2023-04-02T07:49:44.256Z,10.63
2023-04-02T07:50:47.551Z,11.45
2023-04-02T07:51:54.307Z,10.55
2023-04-02T07:53:00.224Z,10.00
2023-04-02T07:54:10.309Z,9.90
2023-04-02T07:55:13.797Z,9.75
2023-04-02T07:56:16.735Z,9.75
2023-04-02T07:57:19.132Z,10.70
2023-04-02T07:58:30.236Z,10.05
2023-04-02T07:59:46.735Z,10.40
2023-04-02T08:00:49.526Z,10.23
2023-04-02T08:01:59.819Z,8.57
2023-04-02T08:13:19.043Z,8.82
2023-04-02T08:15:39.381Z,10.02
2023-04-02T08:16:50.018Z,10.68
2023-04-02T08:17:53.832Z,10.27
2023-04-02T08:19:08.747Z,9.82
2023-04-02T08:20:18.557Z,8.50
2023-04-02T08:21:20.755Z,10.68
2023-04-02T08:22:22.911Z,8.43
2023-04-02T08:23:25.584Z,8.00
2023-04-02T08:24:27.793Z,6.07
2023-04-02T08:25:30.262Z,6.97
2023-04-02T08:26:32.624Z,6.85
2023-04-02T08:27:34.831Z,8.27
2023-04-02T08:28:37.113Z,9.82
2023-04-02T08:29:39.348Z,8.48
2023-04-02T08:30:42.020Z,6.88
2023-04-02T08:31:44.367Z,6.75
2023-04-02T08:32:48.772Z,7.88
2023-04-02T08:33:51.272Z,5.63
2023-04-02T08:34:53.615Z,11.35
2023-04-02T08:37:30.165Z,6.60
2023-04-02T08:38:32.547Z,5.40
2023-04-02T08:39:35.444Z,6.85
2023-04-02T08:40:42.364Z,5.32
2023-04-02T08:41:47.548Z,5.75
2023-04-02T08:42:57.560Z,6.93
2023-04-02T08:44:18.352Z,7.72
2023-04-02T08:45:29.658Z,5.50
2023-04-02T08:46:34.924Z,6.80
2023-04-02T08:48:58.542Z,13.68
2023-04-02T08:50:03.017Z,10.15
2023-04-02T08:51:36.058Z,10.02
2023-04-02T08:52:48.044Z,9.23
2023-04-02T08:53:51.458Z,6.47
2023-04-02T08:54:59.401Z,6.88
2023-04-02T08:56:21.257Z,6.45
2023-04-02T08:57:37.952Z,4.63
2023-04-02T08:58:56.752Z,5.38
2023-04-02T09:00:15.988Z,5.20
2023-04-02T09:01:23.786Z,4.97
2023-04-02T09:02:39.703Z,4.55
2023-04-02T09:03:45.802Z,5.40
2023-04-02T09:04:48.207Z,4.45
2023-04-02T09:05:51.112Z,4.35
2023-04-02T09:06:54.890Z,4.75
2023-04-02T09:08:18.410Z,5.88
2023-04-02T09:09:22.446Z,5.20
2023-04-02T09:11:59.304Z,5.28
2023-04-02T09:13:02.970Z,3.78
2023-04-02T09:15:25.953Z,6.78
2023-04-02T09:16:37.085Z,8.43
2023-04-02T09:17:51.124Z,8.27
2023-04-02T09:18:57.009Z,10.98
2023-04-02T09:20:05.973Z,12.63
2023-04-02T09:21:28.509Z,15.27
2023-04-02T09:23:33.962Z,6.97
2023-04-02T09:24:37.984Z,8.43
2023-04-02T09:25:48.462Z,16.95
2023-04-02T09:27:03.634Z,13.95
2023-04-02T09:29:28.202Z,8.55
2023-04-02T09:30:33.569Z,9.95
2023-04-02T09:31:39.372Z,10.32
2023-04-02T09:32:46.017Z,7.03
2023-04-02T09:33:51.936Z,7.30
2023-04-02T09:35:24.601Z,9.70
2023-04-02T09:38:19.538Z,9.85
2023-04-02T09:39:23.448Z,12.55
2023-04-02T09:40:27.388Z,12.07
2023-04-02T09:41:32.274Z,20.65
2023-04-02T09:42:36.477Z,22.52
2023-04-02T09:43:39.222Z,14.55
2023-04-02T09:44:41.451Z,11.18
2023-04-02T09:45:44.384Z,4.80
2023-04-02T09:47:06.338Z,5.03
2023-04-02T09:48:22.646Z,3.28
2023-04-02T09:49:30.908Z,4.93
2023-04-02T09:50:34.226Z,5.38
2023-04-02T09:51:36.760Z,6.30
2023-04-02T09:52:38.988Z,4.13
2023-04-02T09:53:42.916Z,5.60
2023-04-02T09:54:46.121Z,5.55
2023-04-02T09:55:48.333Z,7.22
2023-04-02T09:57:01.736Z,7.13
2023-04-02T09:58:11.149Z,4.88
2023-04-02T09:59:13.381Z,3.67
2023-04-02T10:00:30.451Z,5.97
2023-04-02T10:01:42.981Z,6.60
2023-04-02T10:02:59.642Z,5.18
2023-04-02T10:04:03.721Z,3.97
2023-04-02T10:06:12.902Z,3.55
2023-04-02T10:07:34.859Z,2.53
2023-04-02T10:08:38.289Z,2.70
2023-04-02T10:09:40.605Z,3.63
2023-04-02T10:10:44.855Z,2.88
2023-04-02T10:11:47.335Z,4.25
2023-04-02T10:12:57.950Z,3.40
2023-04-02T10:14:20.556Z,2.70
2023-04-02T10:15:26.203Z,4.13
2023-04-02T10:16:49.097Z,3.05
2023-04-02T10:17:57.629Z,3.00
2023-04-02T10:19:02.796Z,3.03
2023-04-02T10:20:17.405Z,3.83
2023-04-02T10:21:21.949Z,3.28
2023-04-02T10:22:24.463Z,2.97
2023-04-02T10:23:28.611Z,3.50
2023-04-02T10:24:36.654Z,4.70
2023-04-02T10:25:42.287Z,3.28
2023-04-02T10:26:44.783Z,6.40
2023-04-02T10:27:52.102Z,4.47
2023-04-02T10:29:07.201Z,4.57
2023-04-02T10:30:09.607Z,3.40
2023-04-02T10:31:13.275Z,3.75
2023-04-02T10:32:25.050Z,4.13
2023-04-02T10:33:33.382Z,4.40
2023-04-02T10:34:39.504Z,3.50
2023-04-02T10:35:47.591Z,4.15
2023-04-02T10:36:55.430Z,3.75
2023-04-02T10:37:57.668Z,4.75
2023-04-02T10:39:08.689Z,3.60
2023-04-02T10:40:30.042Z,4.53
2023-04-02T10:41:39.459Z,3.83
2023-04-02T10:43:04.899Z,4.15
2023-04-02T10:44:27.900Z,4.07
2023-04-02T10:45:42.503Z,3.40
2023-04-02T10:46:55.809Z,3.20
2023-04-02T10:48:10.087Z,3.13
2023-04-02T10:49:15.056Z,4.38
2023-04-02T10:50:36.118Z,4.97
2023-04-02T10:51:46.550Z,3.92
2023-04-02T10:53:14.997Z,3.47
2023-04-02T10:54:36.499Z,3.08
2023-04-02T10:55:43.374Z,3.75
2023-04-02T10:56:51.051Z,3.03
2023-04-02T10:57:54.461Z,2.85
2023-04-02T10:58:57.525Z,5.07
2023-04-02T11:00:17.986Z,2.67
2023-04-02T11:01:24.155Z,2.80
2023-04-02T11:02:36.616Z,4.22
2023-04-02T11:03:49.014Z,2.78
2023-04-02T11:04:52.913Z,2.50
2023-04-02T11:08:00.882Z,4.03
2023-04-02T11:09:14.408Z,4.45
2023-04-02T11:10:19.995Z,3.90
2023-04-02T11:11:23.957Z,3.30
2023-04-02T11:13:40.849Z,4.03
2023-04-02T11:14:43.045Z,3.67
2023-04-02T11:15:45.197Z,3.95
2023-04-02T11:16:49.225Z,3.53
2023-04-02T11:19:12.384Z,3.60
2023-04-02T11:20:33.700Z,3.85
2023-04-02T11:21:42.195Z,5.18
2023-04-02T11:23:05.020Z,3.13
2023-04-02T11:24:22.965Z,4.40
2023-04-02T11:25:25.263Z,3.72
2023-04-02T11:26:38.430Z,4.43
2023-04-02T11:27:42.176Z,4.15
2023-04-02T11:28:44.505Z,3.55
2023-04-02T11:29:52.068Z,4.15
2023-04-02T11:30:54.800Z,5.00
2023-04-02T11:32:15.133Z,3.72
2023-04-02T11:33:34.103Z,3.40
2023-04-02T11:34:42.315Z,3.47
2023-04-02T11:35:44.561Z,5.05
2023-04-02T11:36:54.825Z,4.60
2023-04-02T11:37:58.117Z,3.65
2023-04-02T11:39:14.725Z,3.40
2023-04-02T11:40:19.601Z,4.53
2023-04-02T11:41:40.203Z,6.80
2023-04-02T11:42:43.622Z,3.20
2023-04-02T11:43:49.375Z,5.07
2023-04-02T11:44:52.292Z,3.47
2023-04-02T11:45:55.476Z,2.90
2023-04-02T11:47:16.916Z,5.90
2023-04-02T11:48:22.612Z,3.88
2023-04-02T11:49:36.570Z,3.10
2023-04-02T11:50:39.925Z,5.18
2023-04-02T11:51:46.080Z,3.42
2023-04-02T11:52:49.019Z,3.95
2023-04-02T11:53:53.116Z,3.50
2023-04-02T11:54:56.762Z,4.18
2023-04-02T11:56:08.160Z,4.38
2023-04-02T11:57:22.295Z,5.13
2023-04-02T11:58:43.226Z,3.97
2023-04-02T11:59:45.975Z,5.05
2023-04-02T12:01:09.572Z,4.05
2023-04-02T12:02:24.776Z,4.78
2023-04-02T12:03:32.824Z,3.92
2023-04-02T12:04:41.426Z,3.65
2023-04-02T12:05:51.116Z,3.35
2023-04-02T12:06:55.017Z,3.38
2023-04-02T12:08:22.880Z,3.90
2023-04-02T12:09:26.845Z,2.88
2023-04-02T12:10:32.976Z,4.43
2023-04-02T12:11:37.824Z,3.20
2023-04-02T12:12:40.619Z,3.63
2023-04-02T12:13:42.752Z,3.45
2023-04-02T12:14:46.425Z,4.43
2023-04-02T12:15:49.545Z,3.85
2023-04-02T12:16:52.307Z,3.80
2023-04-02T12:18:03.480Z,4.25
2023-04-02T12:19:08.465Z,3.10
2023-04-02T12:20:10.662Z,3.70
2023-04-02T12:21:21.042Z,3.80
2023-04-02T12:22:25.224Z,2.80
2023-04-02T12:23:31.638Z,4.03
2023-04-02T12:24:33.836Z,4.60
2023-04-02T12:25:41.122Z,3.05
2023-04-02T12:26:46.724Z,2.83
2023-04-02T12:28:03.062Z,2.55
2023-04-02T12:29:15.843Z,6.43
2023-04-02T12:30:17.989Z,3.13
2023-04-02T12:31:22.456Z,3.85
2023-04-02T12:32:30.206Z,5.45
2023-04-02T12:33:37.893Z,5.70
2023-04-02T12:34:45.825Z,3.70
2023-04-02T12:35:49.177Z,3.95
2023-04-02T12:36:53.090Z,4.35
2023-04-02T12:38:58.510Z,3.28
2023-04-02T12:40:05.964Z,4.63
2023-04-02T12:41:19.686Z,3.67
2023-04-02T12:42:26.891Z,3.95
2023-04-02T12:43:30.992Z,4.03
2023-04-02T12:44:33.107Z,7.50
2023-04-02T12:45:36.756Z,5.75
2023-04-02T12:46:39.572Z,4.78
2023-04-02T12:47:44.924Z,6.18
2023-04-02T12:48:47.444Z,6.18
2023-04-02T12:49:51.419Z,6.25
2023-04-02T12:50:54.302Z,6.18
2023-04-02T12:51:57.459Z,6.30
2023-04-02T12:53:01.159Z,6.53
2023-04-02T12:54:03.791Z,6.20
2023-04-02T12:55:06.655Z,5.63
2023-04-02T12:56:18.982Z,4.25
2023-04-02T12:57:22.203Z,4.38
2023-04-02T12:58:34.579Z,3.85
2023-04-02T12:59:39.189Z,4.63
2023-04-02T13:00:42.428Z,4.57
2023-04-02T13:01:55.237Z,4.68
2023-04-02T13:03:03.831Z,4.20
2023-04-02T13:04:13.836Z,3.97
2023-04-02T13:05:36.391Z,4.53
2023-04-02T13:06:39.532Z,3.70
2023-04-02T13:07:47.437Z,5.40
2023-04-02T13:08:50.110Z,3.25
2023-04-02T13:09:54.537Z,4.38
2023-04-02T13:11:01.471Z,5.07
2023-04-02T13:12:03.983Z,4.72
2023-04-02T13:13:06.727Z,3.72
2023-04-02T13:14:16.629Z,4.32
2023-04-02T13:15:27.177Z,4.97
2023-04-02T13:16:38.335Z,3.50
2023-04-02T13:17:43.938Z,4.93
2023-04-02T13:18:47.845Z,3.13
2023-04-02T13:19:50.021Z,3.80
2023-04-02T13:21:19.323Z,2.67
2023-04-02T13:22:30.067Z,3.67
2023-04-02T13:23:32.938Z,4.18
2023-04-02T13:24:35.327Z,4.18
2023-04-02T13:27:36.636Z,4.45
2023-04-02T13:28:39.495Z,2.97
2023-04-02T13:29:42.199Z,3.03
2023-04-02T13:30:44.407Z,3.22
2023-04-02T13:31:47.022Z,3.65
2023-04-02T13:32:49.419Z,4.63
2023-04-02T13:33:52.224Z,3.60
2023-04-02T13:34:54.661Z,3.17
2023-04-02T13:35:57.023Z,3.30
2023-04-02T13:36:59.594Z,2.38
2023-04-02T13:38:03.363Z,3.35
2023-04-02T13:39:06.078Z,2.60
2023-04-02T13:40:09.717Z,3.63
2023-04-02T13:41:28.823Z,2.53
2023-04-02T13:42:31.152Z,2.50
2023-04-02T13:43:33.657Z,2.65
2023-04-02T13:44:37.715Z,2.90
2023-04-02T13:45:41.638Z,2.38
2023-04-02T13:46:44.226Z,3.53
2023-04-02T13:47:46.455Z,4.50
2023-04-02T13:48:50.648Z,2.88
2023-04-02T13:49:53.782Z,2.38
2023-04-02T13:50:56.035Z,3.85
2023-04-02T13:52:00.823Z,3.63
2023-04-02T13:53:10.449Z,2.90
2023-04-02T13:54:18.834Z,3.65
2023-04-02T13:55:22.704Z,4.22
2023-04-02T13:57:27.712Z,2.63
2023-04-02T13:58:33.139Z,3.13
2023-04-02T13:59:36.248Z,3.28
2023-04-02T14:00:39.479Z,3.45
2023-04-02T14:01:44.340Z,4.28
2023-04-02T14:02:51.394Z,3.25
2023-04-02T14:03:55.056Z,3.90
2023-04-02T14:05:03.404Z,3.95
2023-04-02T14:06:11.667Z,4.47
2023-04-02T14:07:33.055Z,3.33
2023-04-02T14:08:38.744Z,3.17
2023-04-02T14:09:41.826Z,4.00
2023-04-02T14:11:03.529Z,2.33
2023-04-02T14:12:06.176Z,2.15
2023-04-02T14:13:11.969Z,2.55
2023-04-02T14:14:27.213Z,4.65
2023-04-02T14:15:46.209Z,3.88
2023-04-02T14:17:04.833Z,2.92
2023-04-02T14:18:39.575Z,3.97
2023-04-02T14:19:42.282Z,2.88
2023-04-02T14:20:54.789Z,2.45
2023-04-02T14:22:00.175Z,5.10
2023-04-02T14:23:22.028Z,5.63
2023-04-02T14:24:30.473Z,6.68
2023-04-02T14:25:38.659Z,8.25
2023-04-02T14:26:44.044Z,6.78
2023-04-02T14:27:52.630Z,7.45
2023-04-02T14:29:04.697Z,11.73
2023-04-02T14:30:09.950Z,7.00
2023-04-02T14:31:18.671Z,4.35
2023-04-02T14:32:21.146Z,4.88
2023-04-02T14:33:32.686Z,7.25
2023-04-02T14:35:13.363Z,4.97
2023-04-02T14:36:18.699Z,4.95
2023-04-02T14:37:36.771Z,4.20
2023-04-02T14:38:56.296Z,6.63
2023-04-02T14:40:01.702Z,6.40
2023-04-02T14:41:18.006Z,6.57
2023-04-02T14:42:28.077Z,5.45
2023-04-02T14:43:31.158Z,5.97
2023-04-02T14:44:37.391Z,8.65
2023-04-02T14:45:49.642Z,7.50
2023-04-02T14:46:57.500Z,7.00
2023-04-02T14:48:02.277Z,4.95
2023-04-02T14:49:24.275Z,5.15
2023-04-02T14:50:30.636Z,3.97
2023-04-02T14:51:51.862Z,9.85
2023-04-02T14:52:58.449Z,18.35
2023-04-02T14:54:15.850Z,12.85
2023-04-02T14:55:28.026Z,5.15
2023-04-02T14:56:34.232Z,4.50
2023-04-02T14:57:49.375Z,3.47
2023-04-02T14:59:03.068Z,2.63
2023-04-02T15:00:11.117Z,2.28
2023-04-02T15:01:16.933Z,3.05
2023-04-02T15:02:20.398Z,2.67
2023-04-02T15:03:25.066Z,3.47
2023-04-02T15:04:48.095Z,2.53
2023-04-02T15:06:56.720Z,3.20
2023-04-02T15:08:16.038Z,3.60
2023-04-02T15:09:18.673Z,3.88
2023-04-02T15:10:29.243Z,2.63
2023-04-02T15:11:31.557Z,3.50
2023-04-02T15:12:35.724Z,3.10
2023-04-02T15:13:52.891Z,2.78
2023-04-02T15:14:58.852Z,2.65
2023-04-02T15:16:15.380Z,3.45
2023-04-02T15:17:18.176Z,2.53
2023-04-02T15:18:20.801Z,2.70
2023-04-02T15:19:23.963Z,3.40
2023-04-02T15:20:32.603Z,2.60
2023-04-02T15:21:40.857Z,5.32
2023-04-02T15:22:49.418Z,3.42
2023-04-02T15:23:58.989Z,3.13
2023-04-02T15:25:10.889Z,4.25
2023-04-02T15:26:13.421Z,4.07
2023-04-02T15:27:25.526Z,4.57
2023-04-02T15:28:39.522Z,5.90
2023-04-02T15:30:07.969Z,5.57
2023-04-02T15:31:13.577Z,7.22
2023-04-02T15:32:25.514Z,5.45
2023-04-02T15:33:28.375Z,4.68
2023-04-02T15:34:40.335Z,3.42
2023-04-02T15:36:06.592Z,3.92
2023-04-02T15:39:43.421Z,13.38
2023-04-02T15:41:02.741Z,18.45
2023-04-02T15:42:13.946Z,12.98
2023-04-02T15:43:23.004Z,9.27
2023-04-02T15:44:25.925Z,8.27
2023-04-02T15:45:44.102Z,5.03
2023-04-02T15:46:46.692Z,5.78
2023-04-02T15:48:05.786Z,6.38
2023-04-02T15:49:26.967Z,4.95
2023-04-02T15:50:36.620Z,5.75
2023-04-02T15:51:39.937Z,5.38
2023-04-02T15:52:59.070Z,8.07
2023-04-02T15:54:11.609Z,8.20
2023-04-02T15:55:28.075Z,8.10
2023-04-02T15:56:47.744Z,6.22
2023-04-02T15:58:04.297Z,8.85
2023-04-02T15:59:32.955Z,8.07
2023-04-02T16:00:41.776Z,14.10
2023-04-02T16:01:53.477Z,14.82
2023-04-02T16:03:14.646Z,13.20
2023-04-02T16:04:23.880Z,16.73
2023-04-02T16:05:46.125Z,17.80
2023-04-02T16:07:01.245Z,15.60
2023-04-02T16:08:08.579Z,13.40
2023-04-02T16:09:20.286Z,18.08
2023-04-02T16:10:40.135Z,11.55
2023-04-02T16:11:44.742Z,11.35
2023-04-02T16:12:50.482Z,13.57